weather.gov     
National Weather Service

Terminal Aerodrome Forecast
NWS Homepage
This page is being discontinued on March 12, 2014.
The same data is available at this site. Please update your bookmarks.
Thank you, and we apologize for the inconvenience.
Please send an email to SR-SRH.Webmaster@noaa.gov with any concerns.


Current Version
Previous Version:    01  02  03  04  05  06  07  08  09  10  11  12  13  14  15  16  17  18  19  20  21  22  23  24  25  26  27  28  29  
[Printable]
672
FTUS43 KMPX 160500
TAFSTC
TAF
KSTC 160533Z 1606/1706 12010KT P6SM OVC060
     FM160900 11014G20KT P6SM VCSH OVC040
     FM161300 10017G23KT 4SM -SN OVC030
     FM161800 09016G21KT 2SM -SN OVC012
     FM162100 04012G18KT 3/4SM -SN VV006
     FM170200 36010G18KT 4SM -SN OVC020=


U.S. Dept. of Commerce
NOAA National Weather Service
1325 East West Highway
Silver Spring, MD 20910
E-mail: w-nws.webmaster@noaa.gov
Page last modified: May 16, 2007
NATIONAL WEATHER SERVICE: for Safety, for Work, for Fun - FOR LIFE